sensor_id;sensor_type;location;lat;lon;timestamp;temperature;humidity
3660;DHT22;1846;51.482;7.224;2023-05-10T00:01:12;14.20;99.90
3660;DHT22;1846;51.482;7.224;2023-05-10T00:03:39;14.20;99.90
3660;DHT22;1846;51.482;7.224;2023-05-10T00:06:06;14.10;99.90
3660;DHT22;1846;51.482;7.224;2023-05-10T00:08:41;14.00;99.90
3660;DHT22;1846;51.482;7.224;2023-05-10T00:11:08;13.90;99.90
3660;DHT22;1846;51.482;7.224;2023-05-10T00:13:34;14.00;99.90
3660;DHT22;1846;51.482;7.224;2023-05-10T00:16:01;14.00;99.90
3660;DHT22;1846;51.482;7.224;2023-05-10T00:18:30;14.00;99.90
3660;DHT22;1846;51.482;7.224;2023-05-10T00:20:57;14.00;99.90
3660;DHT22;1846;51.482;7.224;2023-05-10T00:23:26;14.00;99.90
3660;DHT22;1846;51.482;7.224;2023-05-10T00:25:56;14.00;99.90
3660;DHT22;1846;51.482;7.224;2023-05-10T00:28:27;14.00;99.90
3660;DHT22;1846;51.482;7.224;2023-05-10T00:30:54;14.00;99.90
3660;DHT22;1846;51.482;7.224;2023-05-10T00:33:22;14.00;99.90
3660;DHT22;1846;51.482;7.224;2023-05-10T00:35:50;13.90;99.90
3660;DHT22;1846;51.482;7.224;2023-05-10T00:38:18;13.80;99.90
3660;DHT22;1846;51.482;7.224;2023-05-10T00:40:44;13.80;99.90
3660;DHT22;1846;51.482;7.224;2023-05-10T00:43:11;13.90;99.90
3660;DHT22;1846;51.482;7.224;2023-05-10T00:45:40;13.90;99.90
3660;DHT22;1846;51.482;7.224;2023-05-10T00:48:07;14.00;99.90
3660;DHT22;1846;51.482;7.224;2023-05-10T00:50:34;14.00;99.90
3660;DHT22;1846;51.482;7.224;2023-05-10T00:53:03;14.10;99.90
3660;DHT22;1846;51.482;7.224;2023-05-10T00:55:30;14.10;99.90
3660;DHT22;1846;51.482;7.224;2023-05-10T00:57:57;14.10;99.90
3660;DHT22;1846;51.482;7.224;2023-05-10T01:00:24;14.10;99.90
3660;DHT22;1846;51.482;7.224;2023-05-10T01:02:55;14.10;99.90
3660;DHT22;1846;51.482;7.224;2023-05-10T01:05:22;14.10;99.90
3660;DHT22;1846;51.482;7.224;2023-05-10T01:07:49;14.20;99.90
3660;DHT22;1846;51.482;7.224;2023-05-10T01:10:17;14.20;99.90
3660;DHT22;1846;51.482;7.224;2023-05-10T01:12:46;14.10;99.90
3660;DHT22;1846;51.482;7.224;2023-05-10T01:15:14;14.10;99.90
3660;DHT22;1846;51.482;7.224;2023-05-10T01:17:45;14.10;99.90
3660;DHT22;1846;51.482;7.224;2023-05-10T01:20:14;14.10;99.90
3660;DHT22;1846;51.482;7.224;2023-05-10T01:23:10;14.00;99.90
3660;DHT22;1846;51.482;7.224;2023-05-10T01:32:17;14.10;99.90
3660;DHT22;1846;51.482;7.224;2023-05-10T01:35:00;14.00;99.90
3660;DHT22;1846;51.482;7.224;2023-05-10T01:37:36;13.90;99.90
3660;DHT22;1846;51.482;7.224;2023-05-10T01:40:13;13.90;99.90
3660;DHT22;1846;51.482;7.224;2023-05-10T01:42:48;13.70;99.90
3660;DHT22;1846;51.482;7.224;2023-05-10T01:45:21;13.60;99.90
3660;DHT22;1846;51.482;7.224;2023-05-10T01:47:58;13.60;99.90
3660;DHT22;1846;51.482;7.224;2023-05-10T01:50:30;13.60;99.90
3660;DHT22;1846;51.482;7.224;2023-05-10T01:52:59;13.60;99.90
3660;DHT22;1846;51.482;7.224;2023-05-10T01:55:29;13.60;99.90
3660;DHT22;1846;51.482;7.224;2023-05-10T01:58:04;13.70;99.90
3660;DHT22;1846;51.482;7.224;2023-05-10T02:00:32;13.60;99.90
3660;DHT22;1846;51.482;7.224;2023-05-10T02:03:05;13.50;99.90
3660;DHT22;1846;51.482;7.224;2023-05-10T02:05:34;13.60;99.90
3660;DHT22;1846;51.482;7.224;2023-05-10T02:08:06;13.60;99.90
3660;DHT22;1846;51.482;7.224;2023-05-10T02:10:35;13.70;99.90
3660;DHT22;1846;51.482;7.224;2023-05-10T02:13:03;13.70;99.90
3660;DHT22;1846;51.482;7.224;2023-05-10T02:15:32;13.70;99.90
3660;DHT22;1846;51.482;7.224;2023-05-10T02:18:06;13.50;99.90
3660;DHT22;1846;51.482;7.224;2023-05-10T02:20:35;13.50;99.90
3660;DHT22;1846;51.482;7.224;2023-05-10T02:23:06;13.60;99.90
3660;DHT22;1846;51.482;7.224;2023-05-10T02:25:37;13.60;99.90
3660;DHT22;1846;51.482;7.224;2023-05-10T02:28:06;13.50;99.90
3660;DHT22;1846;51.482;7.224;2023-05-10T02:30:35;13.40;99.90
3660;DHT22;1846;51.482;7.224;2023-05-10T02:33:09;13.40;99.90
3660;DHT22;1846;51.482;7.224;2023-05-10T02:35:41;13.40;99.90
3660;DHT22;1846;51.482;7.224;2023-05-10T02:38:10;13.50;99.90
3660;DHT22;1846;51.482;7.224;2023-05-10T02:40:38;13.50;99.90
3660;DHT22;1846;51.482;7.224;2023-05-10T02:43:10;13.40;99.90
3660;DHT22;1846;51.482;7.224;2023-05-10T02:45:38;13.50;99.90
3660;DHT22;1846;51.482;7.224;2023-05-10T02:48:07;13.50;99.90
3660;DHT22;1846;51.482;7.224;2023-05-10T02:50:36;13.40;99.90
3660;DHT22;1846;51.482;7.224;2023-05-10T02:53:09;13.40;99.90
3660;DHT22;1846;51.482;7.224;2023-05-10T02:55:40;13.30;99.90
3660;DHT22;1846;51.482;7.224;2023-05-10T02:58:07;13.30;99.90
3660;DHT22;1846;51.482;7.224;2023-05-10T03:00:36;13.20;99.90
3660;DHT22;1846;51.482;7.224;2023-05-10T03:03:09;13.20;99.90
3660;DHT22;1846;51.482;7.224;2023-05-10T03:05:38;13.20;99.90
3660;DHT22;1846;51.482;7.224;2023-05-10T03:08:08;13.20;99.90
3660;DHT22;1846;51.482;7.224;2023-05-10T03:10:44;13.30;99.90
3660;DHT22;1846;51.482;7.224;2023-05-10T03:13:20;13.20;99.90
3660;DHT22;1846;51.482;7.224;2023-05-10T03:15:59;13.10;99.90
3660;DHT22;1846;51.482;7.224;2023-05-10T03:18:33;13.20;99.90
3660;DHT22;1846;51.482;7.224;2023-05-10T03:21:04;13.20;99.90
3660;DHT22;1846;51.482;7.224;2023-05-10T03:23:41;13.20;99.90
3660;DHT22;1846;51.482;7.224;2023-05-10T03:26:10;13.40;99.90
3660;DHT22;1846;51.482;7.224;2023-05-10T03:28:43;13.40;99.90
3660;DHT22;1846;51.482;7.224;2023-05-10T03:31:10;13.40;99.90
3660;DHT22;1846;51.482;7.224;2023-05-10T03:33:47;13.40;99.90
3660;DHT22;1846;51.482;7.224;2023-05-10T03:36:18;13.50;99.90
3660;DHT22;1846;51.482;7.224;2023-05-10T03:38:45;13.50;99.90
3660;DHT22;1846;51.482;7.224;2023-05-10T03:41:12;13.50;99.90
3660;DHT22;1846;51.482;7.224;2023-05-10T03:43:41;13.50;99.90
3660;DHT22;1846;51.482;7.224;2023-05-10T03:46:10;13.50;99.90
3660;DHT22;1846;51.482;7.224;2023-05-10T03:48:37;13.50;99.90
3660;DHT22;1846;51.482;7.224;2023-05-10T03:51:05;13.50;99.90
3660;DHT22;1846;51.482;7.224;2023-05-10T03:53:32;13.60;99.90
3660;DHT22;1846;51.482;7.224;2023-05-10T03:55:59;13.60;99.90
3660;DHT22;1846;51.482;7.224;2023-05-10T03:58:26;13.60;99.90
3660;DHT22;1846;51.482;7.224;2023-05-10T04:00:53;13.60;99.90
3660;DHT22;1846;51.482;7.224;2023-05-10T04:03:19;13.60;99.90
3660;DHT22;1846;51.482;7.224;2023-05-10T04:05:46;13.50;99.90
3660;DHT22;1846;51.482;7.224;2023-05-10T04:08:15;13.60;99.90
3660;DHT22;1846;51.482;7.224;2023-05-10T04:10:42;13.50;99.90
3660;DHT22;1846;51.482;7.224;2023-05-10T04:13:09;13.50;99.90
3660;DHT22;1846;51.482;7.224;2023-05-10T04:15:36;13.60;99.90
3660;DHT22;1846;51.482;7.224;2023-05-10T04:18:03;13.60;99.90
3660;DHT22;1846;51.482;7.224;2023-05-10T04:20:32;13.60;99.90
3660;DHT22;1846;51.482;7.224;2023-05-10T04:23:00;13.60;99.90
3660;DHT22;1846;51.482;7.224;2023-05-10T04:25:28;13.70;99.90
3660;DHT22;1846;51.482;7.224;2023-05-10T04:27:55;13.70;99.90
3660;DHT22;1846;51.482;7.224;2023-05-10T04:30:23;13.70;99.90
3660;DHT22;1846;51.482;7.224;2023-05-10T04:32:50;13.70;99.90
3660;DHT22;1846;51.482;7.224;2023-05-10T04:35:17;13.70;99.90
3660;DHT22;1846;51.482;7.224;2023-05-10T04:37:44;13.70;99.90
3660;DHT22;1846;51.482;7.224;2023-05-10T04:40:12;13.70;99.90
3660;DHT22;1846;51.482;7.224;2023-05-10T04:42:41;13.80;99.90
3660;DHT22;1846;51.482;7.224;2023-05-10T04:45:08;13.80;99.90
3660;DHT22;1846;51.482;7.224;2023-05-10T04:47:36;13.80;99.90
3660;DHT22;1846;51.482;7.224;2023-05-10T04:50:04;13.80;99.90
3660;DHT22;1846;51.482;7.224;2023-05-10T04:52:31;13.80;99.90
3660;DHT22;1846;51.482;7.224;2023-05-10T04:54:58;13.90;99.90
3660;DHT22;1846;51.482;7.224;2023-05-10T04:57:25;13.90;99.90
3660;DHT22;1846;51.482;7.224;2023-05-10T04:59:54;14.00;99.90
3660;DHT22;1846;51.482;7.224;2023-05-10T05:02:24;13.90;99.90
3660;DHT22;1846;51.482;7.224;2023-05-10T05:04:55;13.90;99.90
3660;DHT22;1846;51.482;7.224;2023-05-10T05:07:23;13.90;99.90
3660;DHT22;1846;51.482;7.224;2023-05-10T05:09:57;13.90;99.90
3660;DHT22;1846;51.482;7.224;2023-05-10T05:12:26;14.00;99.90
3660;DHT22;1846;51.482;7.224;2023-05-10T05:14:57;14.00;99.90
3660;DHT22;1846;51.482;7.224;2023-05-10T05:17:24;14.10;99.90
3660;DHT22;1846;51.482;7.224;2023-05-10T05:19:59;14.00;99.90
3660;DHT22;1846;51.482;7.224;2023-05-10T05:22:35;14.00;99.90
3660;DHT22;1846;51.482;7.224;2023-05-10T05:25:02;14.00;99.90
3660;DHT22;1846;51.482;7.224;2023-05-10T05:27:30;14.10;99.90
3660;DHT22;1846;51.482;7.224;2023-05-10T05:30:05;14.10;99.90
3660;DHT22;1846;51.482;7.224;2023-05-10T05:32:48;14.20;99.90
3660;DHT22;1846;51.482;7.224;2023-05-10T05:35:17;14.10;99.90
3660;DHT22;1846;51.482;7.224;2023-05-10T05:44:05;14.20;99.90
3660;DHT22;1846;51.482;7.224;2023-05-10T05:46:34;14.10;99.90
3660;DHT22;1846;51.482;7.224;2023-05-10T05:49:03;14.10;99.90
3660;DHT22;1846;51.482;7.224;2023-05-10T05:51:30;14.20;99.90
3660;DHT22;1846;51.482;7.224;2023-05-10T05:53:57;14.20;99.90
3660;DHT22;1846;51.482;7.224;2023-05-10T05:56:31;14.20;99.90
3660;DHT22;1846;51.482;7.224;2023-05-10T05:58:59;14.30;99.90
3660;DHT22;1846;51.482;7.224;2023-05-10T06:01:26;14.30;99.90
3660;DHT22;1846;51.482;7.224;2023-05-10T06:03:58;14.20;99.90
3660;DHT22;1846;51.482;7.224;2023-05-10T06:06:27;14.20;99.90
3660;DHT22;1846;51.482;7.224;2023-05-10T06:08:54;14.30;99.90
3660;DHT22;1846;51.482;7.224;2023-05-10T06:11:29;14.30;99.90
3660;DHT22;1846;51.482;7.224;2023-05-10T06:13:59;14.40;99.90
3660;DHT22;1846;51.482;7.224;2023-05-10T06:16:29;14.40;99.90
3660;DHT22;1846;51.482;7.224;2023-05-10T06:18:58;14.40;99.90
3660;DHT22;1846;51.482;7.224;2023-05-10T06:21:28;14.40;99.90
3660;DHT22;1846;51.482;7.224;2023-05-10T06:23:57;14.40;99.90
3660;DHT22;1846;51.482;7.224;2023-05-10T06:26:54;14.40;99.90
3660;DHT22;1846;51.482;7.224;2023-05-10T06:29:52;14.50;99.90
3660;DHT22;1846;51.482;7.224;2023-05-10T06:32:28;14.60;99.90
3660;DHT22;1846;51.482;7.224;2023-05-10T06:35:00;14.60;99.90
3660;DHT22;1846;51.482;7.224;2023-05-10T06:37:29;14.60;99.90
3660;DHT22;1846;51.482;7.224;2023-05-10T06:39:59;14.70;99.90
3660;DHT22;1846;51.482;7.224;2023-05-10T06:42:41;14.80;99.90
3660;DHT22;1846;51.482;7.224;2023-05-10T06:45:12;15.00;99.90
3660;DHT22;1846;51.482;7.224;2023-05-10T06:47:40;15.00;99.90
3660;DHT22;1846;51.482;7.224;2023-05-10T06:50:12;14.90;99.90
3660;DHT22;1846;51.482;7.224;2023-05-10T06:52:40;15.10;99.90
3660;DHT22;1846;51.482;7.224;2023-05-10T06:55:08;15.00;99.90
3660;DHT22;1846;51.482;7.224;2023-05-10T06:57:41;14.80;99.90
3660;DHT22;1846;51.482;7.224;2023-05-10T07:00:24;14.90;99.90
3660;DHT22;1846;51.482;7.224;2023-05-10T07:03:28;15.00;99.90
3660;DHT22;1846;51.482;7.224;2023-05-10T07:09:40;15.20;99.90
3660;DHT22;1846;51.482;7.224;2023-05-10T07:14:57;15.40;99.90
3660;DHT22;1846;51.482;7.224;2023-05-10T07:15:18;15.50;99.90
3660;DHT22;1846;51.482;7.224;2023-05-10T07:17:57;15.60;99.90
3660;DHT22;1846;51.482;7.224;2023-05-10T07:20:24;15.70;99.90
3660;DHT22;1846;51.482;7.224;2023-05-10T07:23:04;15.70;99.90
3660;DHT22;1846;51.482;7.224;2023-05-10T07:25:46;15.70;99.90
3660;DHT22;1846;51.482;7.224;2023-05-10T07:28:19;15.70;99.90
3660;DHT22;1846;51.482;7.224;2023-05-10T07:30:46;15.70;99.90
3660;DHT22;1846;51.482;7.224;2023-05-10T07:33:16;15.70;99.90
3660;DHT22;1846;51.482;7.224;2023-05-10T07:35:46;15.70;99.90
3660;DHT22;1846;51.482;7.224;2023-05-10T07:38:15;15.70;99.90
3660;DHT22;1846;51.482;7.224;2023-05-10T07:40:42;15.70;99.90
3660;DHT22;1846;51.482;7.224;2023-05-10T07:43:19;15.70;99.90
3660;DHT22;1846;51.482;7.224;2023-05-10T07:45:51;15.80;99.90
3660;DHT22;1846;51.482;7.224;2023-05-10T07:48:18;15.90;99.90
3660;DHT22;1846;51.482;7.224;2023-05-10T07:50:45;16.10;99.90
3660;DHT22;1846;51.482;7.224;2023-05-10T07:53:17;16.10;99.90
3660;DHT22;1846;51.482;7.224;2023-05-10T07:55:44;16.10;99.90
3660;DHT22;1846;51.482;7.224;2023-05-10T07:58:11;16.10;99.90
3660;DHT22;1846;51.482;7.224;2023-05-10T08:00:39;16.20;92.00
3660;DHT22;1846;51.482;7.224;2023-05-10T08:03:16;16.30;99.00
3660;DHT22;1846;51.482;7.224;2023-05-10T08:05:43;16.40;98.60
3660;DHT22;1846;51.482;7.224;2023-05-10T08:08:10;16.40;98.90
3660;DHT22;1846;51.482;7.224;2023-05-10T08:10:37;16.50;98.10
3660;DHT22;1846;51.482;7.224;2023-05-10T08:13:10;16.40;95.90
3660;DHT22;1846;51.482;7.224;2023-05-10T08:15:58;16.30;99.90
3660;DHT22;1846;51.482;7.224;2023-05-10T08:18:25;16.20;99.90
3660;DHT22;1846;51.482;7.224;2023-05-10T08:23:43;15.90;99.90
3660;DHT22;1846;51.482;7.224;2023-05-10T08:26:24;15.90;99.90
3660;DHT22;1846;51.482;7.224;2023-05-10T08:28:53;16.10;99.90
3660;DHT22;1846;51.482;7.224;2023-05-10T08:31:28;16.10;1.00
3660;DHT22;1846;51.482;7.224;2023-05-10T08:33:57;16.20;58.30
3660;DHT22;1846;51.482;7.224;2023-05-10T08:36:27;16.20;99.90
3660;DHT22;1846;51.482;7.224;2023-05-10T08:39:04;16.20;99.90
3660;DHT22;1846;51.482;7.224;2023-05-10T08:41:33;16.10;99.90
3660;DHT22;1846;51.482;7.224;2023-05-10T08:44:04;16.00;1.00
3660;DHT22;1846;51.482;7.224;2023-05-10T08:46:49;16.00;1.00
3660;DHT22;1846;51.482;7.224;2023-05-10T08:53:00;15.80;99.90
3660;DHT22;1846;51.482;7.224;2023-05-10T08:58:47;16.00;99.90
3660;DHT22;1846;51.482;7.224;2023-05-10T09:01:33;16.10;99.90
3660;DHT22;1846;51.482;7.224;2023-05-10T09:04:07;16.30;21.10
3660;DHT22;1846;51.482;7.224;2023-05-10T09:06:43;16.20;1.00
3660;DHT22;1846;51.482;7.224;2023-05-10T09:09:34;16.40;1.00
3660;DHT22;1846;51.482;7.224;2023-05-10T09:12:10;16.50;1.00
3660;DHT22;1846;51.482;7.224;2023-05-10T09:14:50;16.30;99.90
3660;DHT22;1846;51.482;7.224;2023-05-10T09:17:22;16.30;99.90
3660;DHT22;1846;51.482;7.224;2023-05-10T09:19:58;16.20;99.90
3660;DHT22;1846;51.482;7.224;2023-05-10T09:22:26;16.30;9.90
3660;DHT22;1846;51.482;7.224;2023-05-10T09:25:04;16.20;99.90
3660;DHT22;1846;51.482;7.224;2023-05-10T09:27:34;16.20;1.00
3660;DHT22;1846;51.482;7.224;2023-05-10T09:30:01;16.40;78.70
3660;DHT22;1846;51.482;7.224;2023-05-10T09:32:39;16.50;1.00
3660;DHT22;1846;51.482;7.224;2023-05-10T09:35:08;16.60;1.00
3660;DHT22;1846;51.482;7.224;2023-05-10T09:37:39;16.80;1.00
3660;DHT22;1846;51.482;7.224;2023-05-10T09:40:12;16.80;99.90
3660;DHT22;1846;51.482;7.224;2023-05-10T09:42:50;16.90;99.90
3660;DHT22;1846;51.482;7.224;2023-05-10T09:45:23;17.10;1.00
3660;DHT22;1846;51.482;7.224;2023-05-10T09:50:55;17.20;99.90
3660;DHT22;1846;51.482;7.224;2023-05-10T09:51:47;17.40;99.90
3660;DHT22;1846;51.482;7.224;2023-05-10T09:55:57;17.60;99.90
3660;DHT22;1846;51.482;7.224;2023-05-10T09:58:10;17.60;1.00
3660;DHT22;1846;51.482;7.224;2023-05-10T10:00:43;17.60;99.90
3660;DHT22;1846;51.482;7.224;2023-05-10T10:03:14;17.60;99.90
3660;DHT22;1846;51.482;7.224;2023-05-10T10:05:48;17.70;36.00
3660;DHT22;1846;51.482;7.224;2023-05-10T10:08:20;17.90;1.00
3660;DHT22;1846;51.482;7.224;2023-05-10T10:11:02;18.30;1.00
3660;DHT22;1846;51.482;7.224;2023-05-10T10:13:59;18.90;17.50
3660;DHT22;1846;51.482;7.224;2023-05-10T10:20:03;20.80;99.90
3660;DHT22;1846;51.482;7.224;2023-05-10T10:23:06;20.60;99.90
3660;DHT22;1846;51.482;7.224;2023-05-10T10:29:52;19.50;1.00
3660;DHT22;1846;51.482;7.224;2023-05-10T10:33:19;18.80;1.00
3660;DHT22;1846;51.482;7.224;2023-05-10T10:36:31;18.50;1.00
3660;DHT22;1846;51.482;7.224;2023-05-10T10:39:12;18.40;1.00
3660;DHT22;1846;51.482;7.224;2023-05-10T10:52:17;17.80;1.00
3660;DHT22;1846;51.482;7.224;2023-05-10T10:55:06;18.20;1.00
3660;DHT22;1846;51.482;7.224;2023-05-10T10:58:09;18.20;1.00
3660;DHT22;1846;51.482;7.224;2023-05-10T11:01:05;18.40;1.00
3660;DHT22;1846;51.482;7.224;2023-05-10T11:04:41;18.30;1.00
3660;DHT22;1846;51.482;7.224;2023-05-10T11:07:56;18.00;1.00
3660;DHT22;1846;51.482;7.224;2023-05-10T11:10:27;17.70;1.00
3660;DHT22;1846;51.482;7.224;2023-05-10T11:13:01;17.60;1.00
3660;DHT22;1846;51.482;7.224;2023-05-10T11:15:31;17.40;40.40
3660;DHT22;1846;51.482;7.224;2023-05-10T11:18:23;17.30;99.90
3660;DHT22;1846;51.482;7.224;2023-05-10T11:21:05;17.50;99.90
3660;DHT22;1846;51.482;7.224;2023-05-10T11:23:56;17.40;99.90
3660;DHT22;1846;51.482;7.224;2023-05-10T11:26:35;17.30;99.90
3660;DHT22;1846;51.482;7.224;2023-05-10T11:29:13;17.20;99.90
3660;DHT22;1846;51.482;7.224;2023-05-10T11:31:43;17.20;99.90
3660;DHT22;1846;51.482;7.224;2023-05-10T11:34:26;17.20;99.90
3660;DHT22;1846;51.482;7.224;2023-05-10T11:36:59;17.20;99.90
3660;DHT22;1846;51.482;7.224;2023-05-10T11:39:27;17.30;99.90
3660;DHT22;1846;51.482;7.224;2023-05-10T11:41:55;17.30;99.90
3660;DHT22;1846;51.482;7.224;2023-05-10T11:44:29;17.30;99.90
3660;DHT22;1846;51.482;7.224;2023-05-10T11:47:01;17.40;93.70
3660;DHT22;1846;51.482;7.224;2023-05-10T11:49:30;17.50;65.00
3660;DHT22;1846;51.482;7.224;2023-05-10T11:52:06;17.50;38.20
3660;DHT22;1846;51.482;7.224;2023-05-10T11:54:45;17.60;99.90
3660;DHT22;1846;51.482;7.224;2023-05-10T11:57:14;17.60;5.10
3660;DHT22;1846;51.482;7.224;2023-05-10T11:59:43;17.70;17.40
3660;DHT22;1846;51.482;7.224;2023-05-10T12:02:11;17.80;1.00
3660;DHT22;1846;51.482;7.224;2023-05-10T12:04:40;17.70;1.00
3660;DHT22;1846;51.482;7.224;2023-05-10T12:07:08;17.60;1.00
3660;DHT22;1846;51.482;7.224;2023-05-10T12:09:37;17.60;1.00
3660;DHT22;1846;51.482;7.224;2023-05-10T12:12:10;17.70;1.00
3660;DHT22;1846;51.482;7.224;2023-05-10T12:14:38;17.70;1.00
3660;DHT22;1846;51.482;7.224;2023-05-10T12:17:14;17.50;99.90
3660;DHT22;1846;51.482;7.224;2023-05-10T12:19:45;17.30;58.30
3660;DHT22;1846;51.482;7.224;2023-05-10T12:22:12;17.30;28.40
3660;DHT22;1846;51.482;7.224;2023-05-10T12:24:40;17.20;59.30
3660;DHT22;1846;51.482;7.224;2023-05-10T12:27:08;17.20;1.00
3660;DHT22;1846;51.482;7.224;2023-05-10T12:29:41;17.30;3.00
3660;DHT22;1846;51.482;7.224;2023-05-10T12:32:14;17.50;99.90
3660;DHT22;1846;51.482;7.224;2023-05-10T12:34:53;18.00;1.00
3660;DHT22;1846;51.482;7.224;2023-05-10T12:37:24;18.80;1.00
3660;DHT22;1846;51.482;7.224;2023-05-10T12:39:52;19.50;99.90
3660;DHT22;1846;51.482;7.224;2023-05-10T12:42:25;19.80;99.90
3660;DHT22;1846;51.482;7.224;2023-05-10T12:44:55;20.00;99.90
3660;DHT22;1846;51.482;7.224;2023-05-10T12:47:24;20.20;99.90
3660;DHT22;1846;51.482;7.224;2023-05-10T12:49:52;20.20;99.90
3660;DHT22;1846;51.482;7.224;2023-05-10T12:52:19;20.00;99.90
3660;DHT22;1846;51.482;7.224;2023-05-10T12:54:49;19.70;99.90
3660;DHT22;1846;51.482;7.224;2023-05-10T12:57:21;19.70;99.90
3660;DHT22;1846;51.482;7.224;2023-05-10T12:59:48;19.70;99.90
3660;DHT22;1846;51.482;7.224;2023-05-10T13:02:15;19.70;99.90
3660;DHT22;1846;51.482;7.224;2023-05-10T13:04:43;19.40;99.90
3660;DHT22;1846;51.482;7.224;2023-05-10T13:07:13;19.40;1.00
3660;DHT22;1846;51.482;7.224;2023-05-10T13:09:40;19.40;99.90
3660;DHT22;1846;51.482;7.224;2023-05-10T13:12:10;19.50;99.90
3660;DHT22;1846;51.482;7.224;2023-05-10T13:14:37;19.40;99.90
3660;DHT22;1846;51.482;7.224;2023-05-10T13:17:05;19.20;99.90
3660;DHT22;1846;51.482;7.224;2023-05-10T13:19:32;18.90;1.00
3660;DHT22;1846;51.482;7.224;2023-05-10T13:21:59;18.80;1.00
3660;DHT22;1846;51.482;7.224;2023-05-10T13:24:33;18.90;1.00
3660;DHT22;1846;51.482;7.224;2023-05-10T13:27:00;19.10;1.00
3660;DHT22;1846;51.482;7.224;2023-05-10T13:29:27;19.20;99.90
3660;DHT22;1846;51.482;7.224;2023-05-10T13:31:54;19.10;99.90
3660;DHT22;1846;51.482;7.224;2023-05-10T13:34:21;19.20;99.90
3660;DHT22;1846;51.482;7.224;2023-05-10T13:36:49;19.50;99.90
3660;DHT22;1846;51.482;7.224;2023-05-10T13:39:16;19.70;99.90
3660;DHT22;1846;51.482;7.224;2023-05-10T13:41:45;19.90;99.90
3660;DHT22;1846;51.482;7.224;2023-05-10T13:44:12;19.80;99.90
3660;DHT22;1846;51.482;7.224;2023-05-10T13:46:42;20.00;99.90
3660;DHT22;1846;51.482;7.224;2023-05-10T13:49:09;20.00;99.90
3660;DHT22;1846;51.482;7.224;2023-05-10T13:51:36;19.90;99.90
3660;DHT22;1846;51.482;7.224;2023-05-10T13:54:03;19.90;99.90
3660;DHT22;1846;51.482;7.224;2023-05-10T13:56:30;20.20;99.90
3660;DHT22;1846;51.482;7.224;2023-05-10T13:58:58;20.30;99.90
3660;DHT22;1846;51.482;7.224;2023-05-10T14:01:25;20.40;99.90
3660;DHT22;1846;51.482;7.224;2023-05-10T14:03:52;20.30;99.90
3660;DHT22;1846;51.482;7.224;2023-05-10T14:06:19;20.40;99.90
3660;DHT22;1846;51.482;7.224;2023-05-10T14:08:47;20.40;99.90
3660;DHT22;1846;51.482;7.224;2023-05-10T14:11:14;20.30;99.90
3660;DHT22;1846;51.482;7.224;2023-05-10T14:13:40;20.30;99.90
3660;DHT22;1846;51.482;7.224;2023-05-10T14:16:09;20.10;99.90
3660;DHT22;1846;51.482;7.224;2023-05-10T14:18:37;20.10;99.90
3660;DHT22;1846;51.482;7.224;2023-05-10T14:21:04;20.10;99.90
3660;DHT22;1846;51.482;7.224;2023-05-10T14:23:30;20.00;99.90
3660;DHT22;1846;51.482;7.224;2023-05-10T14:25:57;20.10;99.90
3660;DHT22;1846;51.482;7.224;2023-05-10T14:28:24;20.10;99.90
3660;DHT22;1846;51.482;7.224;2023-05-10T14:30:51;20.10;99.90
3660;DHT22;1846;51.482;7.224;2023-05-10T14:33:19;20.20;99.90
3660;DHT22;1846;51.482;7.224;2023-05-10T14:35:47;20.10;99.90
3660;DHT22;1846;51.482;7.224;2023-05-10T14:38:14;20.30;99.90
3660;DHT22;1846;51.482;7.224;2023-05-10T14:40:41;20.30;99.90
3660;DHT22;1846;51.482;7.224;2023-05-10T14:43:08;20.30;99.90
3660;DHT22;1846;51.482;7.224;2023-05-10T14:45:35;20.30;99.90
3660;DHT22;1846;51.482;7.224;2023-05-10T14:48:02;20.10;99.90
3660;DHT22;1846;51.482;7.224;2023-05-10T14:50:31;19.70;99.90
3660;DHT22;1846;51.482;7.224;2023-05-10T14:53:00;19.70;99.90
3660;DHT22;1846;51.482;7.224;2023-05-10T14:55:27;19.90;99.90
3660;DHT22;1846;51.482;7.224;2023-05-10T14:57:54;19.70;99.90
3660;DHT22;1846;51.482;7.224;2023-05-10T15:00:22;19.70;99.90
3660;DHT22;1846;51.482;7.224;2023-05-10T15:02:48;19.90;99.90
3660;DHT22;1846;51.482;7.224;2023-05-10T15:05:16;20.10;99.90
3660;DHT22;1846;51.482;7.224;2023-05-10T15:07:44;20.10;99.90
3660;DHT22;1846;51.482;7.224;2023-05-10T15:10:11;20.10;99.90
3660;DHT22;1846;51.482;7.224;2023-05-10T15:12:39;20.00;99.90
3660;DHT22;1846;51.482;7.224;2023-05-10T15:15:07;19.80;99.90
3660;DHT22;1846;51.482;7.224;2023-05-10T15:17:34;19.90;99.90
3660;DHT22;1846;51.482;7.224;2023-05-10T15:20:01;20.20;99.90
3660;DHT22;1846;51.482;7.224;2023-05-10T15:22:29;20.10;99.90
3660;DHT22;1846;51.482;7.224;2023-05-10T15:24:58;20.10;99.90
3660;DHT22;1846;51.482;7.224;2023-05-10T15:27:25;20.00;99.90
3660;DHT22;1846;51.482;7.224;2023-05-10T15:29:52;19.70;99.90
3660;DHT22;1846;51.482;7.224;2023-05-10T15:32:21;19.70;99.90
3660;DHT22;1846;51.482;7.224;2023-05-10T15:34:48;19.60;99.90
3660;DHT22;1846;51.482;7.224;2023-05-10T15:37:14;19.60;99.90
3660;DHT22;1846;51.482;7.224;2023-05-10T15:39:41;19.70;99.90
3660;DHT22;1846;51.482;7.224;2023-05-10T15:42:10;19.70;99.90
3660;DHT22;1846;51.482;7.224;2023-05-10T15:44:36;19.60;99.90
3660;DHT22;1846;51.482;7.224;2023-05-10T15:47:05;19.60;99.90
3660;DHT22;1846;51.482;7.224;2023-05-10T15:49:32;19.60;99.90
3660;DHT22;1846;51.482;7.224;2023-05-10T15:52:03;19.50;99.90
3660;DHT22;1846;51.482;7.224;2023-05-10T15:54:30;19.30;99.90
3660;DHT22;1846;51.482;7.224;2023-05-10T15:56:57;19.30;99.90
3660;DHT22;1846;51.482;7.224;2023-05-10T15:59:26;19.30;99.90
3660;DHT22;1846;51.482;7.224;2023-05-10T16:01:52;19.20;99.90
3660;DHT22;1846;51.482;7.224;2023-05-10T16:04:20;19.10;99.90
3660;DHT22;1846;51.482;7.224;2023-05-10T16:06:47;19.00;99.90
3660;DHT22;1846;51.482;7.224;2023-05-10T16:09:14;18.90;99.90
3660;DHT22;1846;51.482;7.224;2023-05-10T16:11:42;18.90;99.90
3660;DHT22;1846;51.482;7.224;2023-05-10T16:14:09;18.80;99.90
3660;DHT22;1846;51.482;7.224;2023-05-10T16:16:37;18.90;99.90
3660;DHT22;1846;51.482;7.224;2023-05-10T16:19:04;18.70;99.90
3660;DHT22;1846;51.482;7.224;2023-05-10T16:21:31;18.70;99.90
3660;DHT22;1846;51.482;7.224;2023-05-10T16:23:59;18.60;99.90
3660;DHT22;1846;51.482;7.224;2023-05-10T16:26:26;18.60;99.90
3660;DHT22;1846;51.482;7.224;2023-05-10T16:28:53;18.60;99.90
3660;DHT22;1846;51.482;7.224;2023-05-10T16:31:20;18.50;99.90
3660;DHT22;1846;51.482;7.224;2023-05-10T16:33:48;18.50;99.90
3660;DHT22;1846;51.482;7.224;2023-05-10T16:36:17;18.40;99.90
3660;DHT22;1846;51.482;7.224;2023-05-10T16:38:44;18.40;99.90
3660;DHT22;1846;51.482;7.224;2023-05-10T16:41:11;18.40;99.90
3660;DHT22;1846;51.482;7.224;2023-05-10T16:43:38;18.40;99.90
3660;DHT22;1846;51.482;7.224;2023-05-10T16:46:09;18.50;99.90
3660;DHT22;1846;51.482;7.224;2023-05-10T16:48:36;18.30;99.90
3660;DHT22;1846;51.482;7.224;2023-05-10T16:51:04;17.90;1.00
3660;DHT22;1846;51.482;7.224;2023-05-10T16:53:33;17.60;45.60
3660;DHT22;1846;51.482;7.224;2023-05-10T16:56:00;17.30;1.00
3660;DHT22;1846;51.482;7.224;2023-05-10T16:58:29;17.10;99.90
3660;DHT22;1846;51.482;7.224;2023-05-10T17:00:58;16.90;99.90
3660;DHT22;1846;51.482;7.224;2023-05-10T17:03:25;16.70;1.00
3660;DHT22;1846;51.482;7.224;2023-05-10T17:05:54;16.50;99.90
3660;DHT22;1846;51.482;7.224;2023-05-10T17:08:23;16.30;1.00
3660;DHT22;1846;51.482;7.224;2023-05-10T17:10:51;16.20;1.00
3660;DHT22;1846;51.482;7.224;2023-05-10T17:13:20;16.30;1.00
3660;DHT22;1846;51.482;7.224;2023-05-10T17:15:49;16.20;99.90
3660;DHT22;1846;51.482;7.224;2023-05-10T17:18:22;16.20;1.00